Flight Track Log - Related Links

Times and Time Zones

All times are in EDT time to prevent confusion due to time zone crossing. See the N618JB flight status page for this flight to view local times or setup timezone preferences in your user account.

Time Position Orientation Groundspeed Altitude Reporting Facility
EDT Latitude Longitude Course Direction KTS MPH feet Rate Location/Type
Wed 02:00:41 PM 36.1006 -115.1522 161° South 147 169 3,200  Level Los Angeles Center
Wed 02:01:36 PM 36.1250 -115.1842 313° West 187 215 4,700 1,906 Climbing Los Angeles Center
Wed 02:02:06 PM 36.1192 -115.2233 260° West 235 270 5,900 3,246 Climbing Los Angeles Center
Wed 02:02:37 PM 36.1089 -115.2692 254° West 256 295 8,000 3,714 Climbing Los Angeles Center
Wed 02:03:00 PM 35.9079 -115.3794 202° Southwest  Level FlightAware Approximate
Wed 02:03:09 PM 36.0869 -115.3017 230° Southwest 261 300 9,800  Level Los Angeles Center
Wed 02:04:00 PM 35.8073 -115.3435 161° South  Level FlightAware Approximate
Wed 02:04:11 PM 36.0019 -115.2861 172° South 314 361 13,000  Level Los Angeles Center
Wed 02:05:00 PM 35.7499 -115.3189 161° South  Level FlightAware Approximate
Wed 02:05:13 PM 35.9144 -115.2625 168° South 324 373 15,700  Level Los Angeles Center
Wed 02:06:00 PM 35.6926 -115.2944 161° South  Level FlightAware Approximate
Wed 02:06:15 PM 35.8103 -115.2775 187° South 362 417 16,700  Level Los Angeles Center
Wed 02:07:17 PM 35.6933 -115.2969 188° South 405 466 18,600 2,032 Climbing Los Angeles Center
Wed 02:08:19 PM 35.6050 -115.3936 222° Southwest 413 475 20,900 2,274 Climbing Los Angeles Center
Wed 02:09:21 PM 35.5108 -115.5233 228° Southwest 420 483 23,300 1,500 Climbing Los Angeles Center
Wed 02:10:23 PM 35.4289 -115.6300 227° Southwest 420 483 24,000 339 Climbing Los Angeles Center
Wed 02:11:25 PM 35.3489 -115.7369 227° Southwest 423 487 24,000  Level Los Angeles Center
Wed 02:12:28 PM 35.2681 -115.8450 228° Southwest 427 491 24,000  Level Los Angeles Center
Wed 02:13:30 PM 35.1864 -115.9514 227° Southwest 428 493 24,000  Level Los Angeles Center
Wed 02:14:32 PM 35.1061 -116.0589 228° Southwest 428 493 24,000  Level Los Angeles Center
Wed 02:15:34 PM 35.0256 -116.1653 227° Southwest 427 491 24,000 48 Level Los Angeles Center
Wed 02:16:36 PM 34.9278 -116.2922 227° Southwest 427 491 24,100  Climbing Los Angeles Center
Wed 02:17:38 PM 34.8478 -116.3961 227° Southwest 423 487 24,000 -48 Descending Los Angeles Center
Wed 02:18:40 PM 34.7686 -116.4978 227° Southwest 416 479 24,000  Level Los Angeles Center
Wed 02:19:43 PM 34.6864 -116.5997 226° Southwest 421 484 24,000 -336 Level Los Angeles Center
Wed 02:20:45 PM 34.6036 -116.6989 225° Southwest 419 482 23,300 -1,887 Descending Los Angeles Center
Wed 02:21:47 PM 34.5194 -116.8014 225° Southwest 425 489 20,100 -3,145 Descending Los Angeles Center
Wed 02:22:49 PM 34.4353 -116.9031 225° Southwest 426 490 16,800 -3,145 Descending Los Angeles Center
Wed 02:23:51 PM 34.3400 -117.0203 225° Southwest 408 470 13,600 -1,776 Descending Los Angeles Center
Wed 02:24:54 PM 34.2636 -117.1061 223° Southwest 378 435 13,100 -240 Descending Los Angeles Center
Wed 02:25:56 PM 34.1661 -117.1258 190° South 358 412 13,100 -48 Level Los Angeles Center
Wed 02:26:58 PM 34.0672 -117.1408 187° South 353 406 13,000 -629 Descending Los Angeles Center
Wed 02:28:00 PM 33.9703 -117.1558 187° South 351 404 11,800 -1,306 Descending Los Angeles Center
Wed 02:29:02 PM 33.8608 -117.1725 187° South 345 397 10,300 -1,500 Descending Los Angeles Center
Wed 02:30:04 PM 33.7731 -117.1844 186° South 326 375 8,700 -1,065 Descending Los Angeles Center
Wed 02:31:06 PM 33.7097 -117.2383 215° Southwest 301 346 8,100 -290 Descending Los Angeles Center
Wed 02:32:08 PM 33.6550 -117.3153 230° Southwest 300 345 8,100  Level Los Angeles Center
Wed 02:33:10 PM 33.6011 -117.3928 230° Southwest 301 346 8,100 -336 Level Los Angeles Center
Wed 02:34:13 PM 33.5492 -117.4658 230° Southwest 294 338 7,400 -768 Descending Los Angeles Center
Wed 02:35:15 PM 33.5433 -117.5525 265° West 237 273 6,500 -677 Descending Los Angeles Center
Wed 02:36:17 PM 33.5528 -117.6242 279° West 223 257 6,000 -690 Descending Los Angeles Center
Wed 02:37:08 PM 33.5667 -117.7000 282° West 226 260 5,200 -800 Descending Southern California TRACON
Wed 02:38:02 PM 33.5667 -117.7500 270° West 214 246 4,600 -700 Descending Southern California TRACON
Wed 02:39:08 PM 33.5833 -117.8333 284° West 225 259 3,800 -762 Descending Southern California TRACON
Wed 02:40:08 PM 33.6000 -117.9000 287° West 203 234 3,000 -623 Descending Southern California TRACON
Wed 02:40:25 PM 33.6183 -117.9108 334° Northwest 215 247 3,000  Level Los Angeles Center
Wed 02:41:09 PM 33.6500 -117.9500 314° West 207 238 3,000  Level Southern California TRACON
Wed 02:42:09 PM 33.6833 -118.0000 309° West 206 237 3,000 -336 Level Southern California TRACON
Wed 02:43:14 PM 33.7333 -118.0500 320° Northwest 184 212 2,300 -762 Descending Southern California TRACON
Wed 02:44:15 PM 33.7667 -118.0833 320° Northwest 159 183 1,400 -783 Descending Southern California TRACON
Wed 02:45:09 PM 33.7833 -118.1167 301° West 130 150 800 -632 Descending Southern California TRACON
Wed 02:46:09 PM 33.8167 -118.1333 337° Northwest 134 154 200 -472 Descending Southern California TRACON
Wed 02:46:38 PM 33.8189 -118.1525 278° West 137 158 100 -207 Descending Los Angeles Center

Login

Don't have an account? Register now (free) for customized features, flight alerts, and more!